createdAt,value
2023-06-29T00:01:02.312Z,0.70
2023-06-29T00:03:29.276Z,0.50
2023-06-29T00:05:56.193Z,0.60
2023-06-29T00:08:24.363Z,0.60
2023-06-29T00:10:51.624Z,0.70
2023-06-29T00:13:18.561Z,0.68
2023-06-29T00:15:47.144Z,0.80
2023-06-29T00:18:14.263Z,0.70
2023-06-29T00:20:41.252Z,0.90
2023-06-29T00:23:08.252Z,0.70
2023-06-29T00:25:35.207Z,0.63
2023-06-29T00:28:02.201Z,0.60
2023-06-29T00:30:29.117Z,0.50
2023-06-29T00:32:57.422Z,0.60
2023-06-29T00:35:24.406Z,0.60
2023-06-29T00:37:51.312Z,0.65
2023-06-29T00:40:18.258Z,0.60
2023-06-29T00:42:45.150Z,0.55
2023-06-29T00:45:12.088Z,0.60
2023-06-29T00:47:39.007Z,0.70
2023-06-29T00:50:08.382Z,0.80
2023-06-29T00:52:35.373Z,0.68
2023-06-29T00:55:02.284Z,0.90
2023-06-29T00:57:29.221Z,0.52
2023-06-29T00:59:56.255Z,0.60
2023-06-29T01:02:23.202Z,0.75
2023-06-29T01:04:50.153Z,0.73
2023-06-29T01:07:21.479Z,0.88
2023-06-29T01:09:48.393Z,0.70
2023-06-29T01:12:15.381Z,0.63
2023-06-29T01:14:42.833Z,0.70
2023-06-29T01:17:09.903Z,0.60
2023-06-29T01:19:36.843Z,0.70
2023-06-29T01:22:04.618Z,0.70
2023-06-29T01:24:38.667Z,1.00
2023-06-29T01:27:05.889Z,0.77
2023-06-29T01:29:32.851Z,0.70
2023-06-29T01:31:59.811Z,1.00
2023-06-29T01:34:27.680Z,0.85
2023-06-29T01:36:54.573Z,0.80
2023-06-29T01:39:22.557Z,0.75
2023-06-29T01:41:50.818Z,0.77
2023-06-29T01:44:17.780Z,0.60
2023-06-29T01:46:44.821Z,0.60
2023-06-29T01:49:11.724Z,0.80
2023-06-29T01:51:38.636Z,0.98
2023-06-29T01:54:05.674Z,0.73
2023-06-29T01:56:32.596Z,0.68
2023-06-29T01:59:00.854Z,0.60
2023-06-29T02:01:27.929Z,0.68
2023-06-29T02:03:55.237Z,0.80
2023-06-29T02:06:22.236Z,0.60
2023-06-29T02:08:49.110Z,0.45
2023-06-29T02:11:16.031Z,0.60
2023-06-29T02:13:42.927Z,0.88
2023-06-29T02:16:11.313Z,0.80
2023-06-29T02:18:38.262Z,0.80
2023-06-29T02:21:05.337Z,1.00
2023-06-29T02:23:32.315Z,0.90
2023-06-29T02:25:59.317Z,0.60
2023-06-29T02:28:26.201Z,0.57
2023-06-29T02:30:53.099Z,0.70
2023-06-29T02:33:21.354Z,0.60
2023-06-29T02:35:48.329Z,0.65
2023-06-29T02:38:15.508Z,0.65
2023-06-29T02:40:42.381Z,0.82
2023-06-29T02:43:09.273Z,0.80
2023-06-29T02:45:36.240Z,0.50
2023-06-29T02:48:03.222Z,0.75
2023-06-29T02:50:31.741Z,0.80
2023-06-29T02:52:58.675Z,0.70
2023-06-29T02:55:25.640Z,0.55
2023-06-29T02:57:52.890Z,0.70
2023-06-29T03:00:19.982Z,0.55
2023-06-29T03:02:47.087Z,0.70
2023-06-29T03:05:14.122Z,0.55
2023-06-29T03:07:42.395Z,0.75
2023-06-29T03:10:09.603Z,0.60
2023-06-29T03:12:36.625Z,0.82
2023-06-29T03:15:03.792Z,0.80
2023-06-29T03:17:30.873Z,0.60
2023-06-29T03:19:57.869Z,0.85
2023-06-29T03:22:24.802Z,1.08
2023-06-29T03:24:53.106Z,0.90
2023-06-29T03:27:20.050Z,0.70
2023-06-29T03:29:50.195Z,0.60
2023-06-29T03:32:17.080Z,0.75
2023-06-29T03:34:43.995Z,0.90
2023-06-29T03:37:10.939Z,0.80
2023-06-29T03:39:37.867Z,0.70
2023-06-29T03:42:06.899Z,0.57
2023-06-29T03:44:33.801Z,0.50
2023-06-29T03:47:00.708Z,0.63
2023-06-29T03:49:27.628Z,0.70
2023-06-29T03:51:54.669Z,0.80
2023-06-29T03:54:21.611Z,0.82
2023-06-29T03:56:48.547Z,0.55
2023-06-29T03:59:17.024Z,0.75
2023-06-29T04:01:44.045Z,0.55
2023-06-29T04:04:11.224Z,0.77
2023-06-29T04:06:38.252Z,0.80
2023-06-29T04:09:05.212Z,0.80
2023-06-29T04:11:32.176Z,1.13
2023-06-29T04:13:59.097Z,0.60
2023-06-29T04:16:27.523Z,0.77
2023-06-29T04:18:54.525Z,0.85
2023-06-29T04:21:21.414Z,0.70
2023-06-29T04:23:48.340Z,0.90
2023-06-29T04:26:15.271Z,0.80
2023-06-29T04:28:42.243Z,0.93
2023-06-29T04:31:09.233Z,0.95
2023-06-29T04:33:37.529Z,0.85
2023-06-29T04:36:04.944Z,0.98
2023-06-29T04:38:31.852Z,0.70
2023-06-29T04:40:58.790Z,0.95
2023-06-29T04:43:25.678Z,0.85
2023-06-29T04:45:52.579Z,0.70
2023-06-29T04:48:19.464Z,0.75
2023-06-29T04:50:47.926Z,0.80
2023-06-29T04:53:14.916Z,1.33
2023-06-29T04:55:41.918Z,0.85
2023-06-29T04:58:08.876Z,0.65
2023-06-29T05:00:35.835Z,0.82
2023-06-29T05:03:02.852Z,0.77
2023-06-29T05:05:29.879Z,0.75
2023-06-29T05:07:58.232Z,0.80
2023-06-29T05:10:25.155Z,0.80
2023-06-29T05:12:52.097Z,0.90
2023-06-29T05:15:19.082Z,0.82
2023-06-29T05:17:46.062Z,0.70
2023-06-29T05:20:14.708Z,0.65
2023-06-29T05:22:41.622Z,0.70
2023-06-29T05:25:10.179Z,0.80
2023-06-29T05:27:37.202Z,1.10
2023-06-29T05:30:05.073Z,0.90
2023-06-29T05:32:32.062Z,0.70
2023-06-29T05:34:58.966Z,0.93
2023-06-29T05:37:25.869Z,0.90
2023-06-29T05:39:52.852Z,0.57
2023-06-29T05:42:21.163Z,0.70
2023-06-29T05:44:48.073Z,0.70
2023-06-29T05:47:14.981Z,0.70
2023-06-29T05:49:41.876Z,0.63
2023-06-29T05:52:08.806Z,0.60
2023-06-29T05:54:35.746Z,0.80
2023-06-29T05:57:02.766Z,1.00
2023-06-29T05:59:31.065Z,0.90
2023-06-29T06:01:57.977Z,1.02
2023-06-29T06:04:24.915Z,0.80
2023-06-29T06:06:51.839Z,0.68
2023-06-29T06:09:18.793Z,0.90
2023-06-29T06:11:45.680Z,0.75
2023-06-29T06:14:12.604Z,0.80
2023-06-29T06:16:41.019Z,0.90
2023-06-29T06:19:07.983Z,1.05
2023-06-29T06:21:34.958Z,1.08
2023-06-29T06:24:01.898Z,1.20
2023-06-29T06:26:28.819Z,1.02
2023-06-29T06:28:55.971Z,0.95
2023-06-29T06:31:33.523Z,0.93
2023-06-29T06:34:02.799Z,0.80
2023-06-29T06:36:29.697Z,1.02
2023-06-29T06:38:56.603Z,0.80
2023-06-29T06:41:23.677Z,0.80
2023-06-29T06:43:50.553Z,0.77
2023-06-29T06:46:17.452Z,1.13
2023-06-29T06:48:44.364Z,1.10
2023-06-29T06:51:12.622Z,0.95
2023-06-29T06:53:40.082Z,0.93
2023-06-29T06:56:07.069Z,0.70
2023-06-29T06:58:34.349Z,0.73
2023-06-29T07:01:01.303Z,0.85
2023-06-29T07:03:28.252Z,1.08
2023-06-29T07:05:55.230Z,0.82
2023-06-29T07:08:23.575Z,1.00
2023-06-29T07:10:50.510Z,0.80
2023-06-29T07:13:17.405Z,0.88
2023-06-29T07:15:44.380Z,1.00
2023-06-29T07:18:11.314Z,0.70
2023-06-29T07:25:40.702Z,1.13
2023-06-29T07:28:07.632Z,0.88
2023-06-29T07:30:34.667Z,0.80
2023-06-29T07:33:01.659Z,1.00
2023-06-29T07:35:28.627Z,0.85
2023-06-29T07:37:55.572Z,0.90
2023-06-29T07:40:23.118Z,0.95
2023-06-29T07:42:51.433Z,0.90
2023-06-29T07:45:18.401Z,1.00
2023-06-29T07:47:45.395Z,0.90
2023-06-29T07:50:12.407Z,0.90
2023-06-29T07:52:39.350Z,0.90
2023-06-29T07:55:06.646Z,1.13
2023-06-29T08:00:05.661Z,1.38
2023-06-29T08:02:32.599Z,1.30
2023-06-29T08:07:29.392Z,0.80
2023-06-29T08:09:56.364Z,1.15
2023-06-29T08:12:23.398Z,1.30
2023-06-29T08:14:50.341Z,0.90
2023-06-29T08:17:18.644Z,0.90
2023-06-29T08:19:45.572Z,1.25
2023-06-29T08:22:12.554Z,1.05
2023-06-29T08:24:39.479Z,0.90
2023-06-29T08:27:06.936Z,1.10
2023-06-29T08:29:33.833Z,0.95
2023-06-29T08:32:00.866Z,0.80
2023-06-29T08:34:29.224Z,0.90
2023-06-29T08:36:56.136Z,0.80
2023-06-29T08:39:23.062Z,0.60
2023-06-29T08:41:49.971Z,0.80
2023-06-29T08:44:16.872Z,0.88
2023-06-29T08:46:43.893Z,0.90
2023-06-29T08:49:10.913Z,0.90
2023-06-29T08:51:40.702Z,0.50
2023-06-29T08:54:08.139Z,0.95
2023-06-29T08:56:35.195Z,0.80
2023-06-29T08:59:02.149Z,0.60
2023-06-29T09:01:29.245Z,0.70
2023-06-29T09:03:56.254Z,1.10
2023-06-29T09:06:23.164Z,1.00
2023-06-29T09:08:51.477Z,1.02
2023-06-29T09:11:18.434Z,0.90
2023-06-29T09:13:45.320Z,1.10
2023-06-29T09:16:12.360Z,0.88
2023-06-29T09:18:39.384Z,0.60
2023-06-29T09:21:06.281Z,1.10
2023-06-29T09:23:33.239Z,0.98
2023-06-29T09:26:04.846Z,1.10
2023-06-29T09:28:33.329Z,1.20
2023-06-29T09:31:00.275Z,1.17
2023-06-29T09:33:27.320Z,0.80
2023-06-29T09:35:54.388Z,1.10
2023-06-29T09:38:21.300Z,0.90
2023-06-29T09:40:49.142Z,0.90
2023-06-29T09:43:18.156Z,1.00
2023-06-29T09:45:45.091Z,0.80
2023-06-29T09:50:49.776Z,0.80
2023-06-29T09:53:17.187Z,0.75
2023-06-29T09:55:44.342Z,0.75
2023-06-29T09:58:11.280Z,1.00
2023-06-29T10:00:39.604Z,1.10
2023-06-29T10:03:06.564Z,0.80
2023-06-29T10:05:33.535Z,0.88
2023-06-29T10:08:00.442Z,0.90
2023-06-29T10:10:27.459Z,0.82
2023-06-29T10:12:55.599Z,0.90
2023-06-29T10:15:22.868Z,1.45
2023-06-29T10:17:54.719Z,0.70
2023-06-29T10:20:22.621Z,0.70
2023-06-29T10:22:49.492Z,1.00
2023-06-29T10:25:18.441Z,0.80
2023-06-29T10:27:45.441Z,0.95
2023-06-29T10:30:12.538Z,1.05
2023-06-29T10:32:40.363Z,0.70
2023-06-29T10:35:10.274Z,1.10
2023-06-29T10:37:37.947Z,1.00
2023-06-29T10:40:12.827Z,1.30
2023-06-29T10:42:50.168Z,0.70
2023-06-29T10:45:32.973Z,1.10
2023-06-29T10:48:15.166Z,1.05
2023-06-29T10:50:51.127Z,1.13
2023-06-29T10:53:18.692Z,1.13
2023-06-29T10:55:47.150Z,0.60
2023-06-29T10:58:19.601Z,1.02
2023-06-29T11:00:46.995Z,1.30
2023-06-29T11:03:14.333Z,1.02
2023-06-29T11:05:41.355Z,1.38
2023-06-29T11:08:09.642Z,0.98
2023-06-29T11:10:36.588Z,0.93
2023-06-29T11:13:08.158Z,1.00
2023-06-29T11:15:35.151Z,1.05
2023-06-29T11:18:06.190Z,1.20
2023-06-29T11:20:33.620Z,1.05
2023-06-29T11:23:00.594Z,0.90
2023-06-29T11:25:28.912Z,1.38
2023-06-29T11:27:55.852Z,1.13
2023-06-29T11:30:22.771Z,1.15
2023-06-29T11:32:50.298Z,1.00
2023-06-29T11:35:18.405Z,0.90
2023-06-29T11:37:45.340Z,1.05
2023-06-29T11:40:19.751Z,1.13
2023-06-29T11:42:48.222Z,1.17
2023-06-29T11:45:15.141Z,0.90
2023-06-29T11:47:42.100Z,1.05
2023-06-29T11:50:09.296Z,0.90
2023-06-29T11:52:36.234Z,0.98
2023-06-29T11:55:03.961Z,0.88
2023-06-29T11:57:31.937Z,0.90
2023-06-29T12:00:00.748Z,0.90
2023-06-29T12:02:27.743Z,0.73
2023-06-29T12:04:55.888Z,0.80
2023-06-29T12:07:38.402Z,0.90
2023-06-29T12:10:06.175Z,0.80
2023-06-29T12:12:37.060Z,0.90
2023-06-29T12:15:19.453Z,1.30
2023-06-29T12:20:17.707Z,1.08
2023-06-29T12:22:45.143Z,0.90
2023-06-29T12:25:12.159Z,1.10
2023-06-29T12:27:39.878Z,1.00
2023-06-29T12:30:07.943Z,0.88
2023-06-29T12:32:36.261Z,1.05
2023-06-29T12:35:03.372Z,0.90
2023-06-29T12:37:30.347Z,1.00
2023-06-29T12:39:57.263Z,0.90
2023-06-29T12:42:24.323Z,0.85
2023-06-29T12:44:51.392Z,0.80
2023-06-29T12:47:18.513Z,1.00
2023-06-29T12:49:47.228Z,1.08
2023-06-29T12:52:14.988Z,0.88
2023-06-29T12:54:41.947Z,0.88
2023-06-29T12:57:08.855Z,0.90
2023-06-29T12:59:35.756Z,1.05
2023-06-29T13:02:02.874Z,1.00
2023-06-29T13:04:30.950Z,0.82
2023-06-29T13:07:01.974Z,1.00
2023-06-29T13:09:29.588Z,0.93
2023-06-29T13:11:56.469Z,0.93
2023-06-29T13:14:23.374Z,0.90
2023-06-29T13:16:50.452Z,0.73
2023-06-29T13:19:17.391Z,1.23
2023-06-29T13:21:44.342Z,1.05
2023-06-29T13:24:12.708Z,1.30
2023-06-29T13:26:39.667Z,1.00
2023-06-29T13:29:06.680Z,1.25
2023-06-29T13:31:33.619Z,1.00
2023-06-29T13:34:00.539Z,0.85
2023-06-29T13:36:27.471Z,0.80
2023-06-29T13:38:54.399Z,1.10
2023-06-29T13:41:34.754Z,0.90
2023-06-29T13:44:01.731Z,1.00
2023-06-29T13:46:28.630Z,0.95
2023-06-29T13:48:55.539Z,0.88
2023-06-29T13:51:22.430Z,1.10
2023-06-29T13:53:49.526Z,1.40
2023-06-29T13:56:16.634Z,1.00
2023-06-29T13:58:44.975Z,1.27
2023-06-29T14:01:11.925Z,1.00
2023-06-29T14:03:38.944Z,1.02
2023-06-29T14:06:05.975Z,0.77
2023-06-29T14:08:32.869Z,1.00
2023-06-29T14:10:59.762Z,0.95
2023-06-29T14:13:26.736Z,1.00
2023-06-29T14:15:55.038Z,1.25
2023-06-29T14:18:22.085Z,1.13
2023-06-29T14:20:50.648Z,1.00
2023-06-29T14:23:18.245Z,1.02
2023-06-29T14:25:45.327Z,1.02
2023-06-29T14:28:12.345Z,1.15
2023-06-29T14:30:39.246Z,1.17
2023-06-29T14:33:19.702Z,0.98
2023-06-29T14:35:54.423Z,0.82
2023-06-29T14:38:21.348Z,0.98
2023-06-29T14:40:48.252Z,0.90
2023-06-29T14:43:15.271Z,0.90
2023-06-29T14:45:42.308Z,1.05
2023-06-29T14:48:11.430Z,1.40
2023-06-29T14:50:38.385Z,0.88
2023-06-29T14:53:05.334Z,1.35
2023-06-29T14:55:32.291Z,1.10
2023-06-29T14:57:59.357Z,1.10
2023-06-29T15:00:26.305Z,1.08
2023-06-29T15:02:53.467Z,1.05
2023-06-29T15:05:22.025Z,1.10
2023-06-29T15:07:48.988Z,1.05
2023-06-29T15:10:16.011Z,1.38
2023-06-29T15:12:43.000Z,1.17
2023-06-29T15:15:11.878Z,1.15
2023-06-29T15:17:40.267Z,0.82
2023-06-29T15:20:08.415Z,1.10
2023-06-29T15:22:36.784Z,1.00
2023-06-29T15:25:03.761Z,1.23
2023-06-29T15:27:30.687Z,0.90
2023-06-29T15:29:57.618Z,1.27
2023-06-29T15:32:24.574Z,1.00
2023-06-29T15:34:51.510Z,1.23
2023-06-29T15:37:18.451Z,1.20
2023-06-29T15:39:46.756Z,1.20
2023-06-29T15:42:14.184Z,1.25
2023-06-29T15:44:41.721Z,1.00
2023-06-29T15:47:08.789Z,1.00
2023-06-29T15:49:35.739Z,1.10
2023-06-29T15:52:02.699Z,1.27
2023-06-29T15:54:29.620Z,1.42
2023-06-29T15:56:57.899Z,1.67
2023-06-29T15:59:24.797Z,1.90
2023-06-29T16:01:51.796Z,1.23
2023-06-29T16:04:18.959Z,1.60
2023-06-29T16:06:46.269Z,1.20
2023-06-29T16:09:13.178Z,1.48
2023-06-29T16:11:40.092Z,1.45
2023-06-29T16:14:13.021Z,1.35
2023-06-29T16:16:39.996Z,1.50
2023-06-29T16:19:23.536Z,1.30
2023-06-29T16:21:58.320Z,1.50
2023-06-29T16:24:25.987Z,1.25
2023-06-29T16:27:05.871Z,1.17
2023-06-29T16:29:35.743Z,1.40
2023-06-29T16:32:02.939Z,1.67
2023-06-29T16:37:52.974Z,1.17
2023-06-29T16:43:41.840Z,1.58
2023-06-29T16:49:31.950Z,1.98
2023-06-29T16:51:58.869Z,1.63
2023-06-29T16:54:25.791Z,1.40
2023-06-29T16:57:11.788Z,2.17
2023-06-29T16:59:45.845Z,1.42
2023-06-29T17:02:12.888Z,1.85
2023-06-29T17:04:41.232Z,1.88
2023-06-29T17:07:20.368Z,1.77
2023-06-29T17:13:09.131Z,1.98
2023-06-29T21:19:17.845Z,2.25
2023-06-29T21:21:45.143Z,2.10
2023-06-29T21:24:12.720Z,1.45
2023-06-29T21:26:39.731Z,1.80
2023-06-29T21:29:22.565Z,1.88
2023-06-29T21:31:53.635Z,1.95
2023-06-29T21:34:22.576Z,1.65
2023-06-29T21:36:49.982Z,2.55
2023-06-29T21:39:16.905Z,2.40
2023-06-29T21:41:43.808Z,2.42
2023-06-29T21:44:10.823Z,2.35
2023-06-29T21:46:37.811Z,2.40
2023-06-29T21:49:05.000Z,2.25
2023-06-29T21:51:33.325Z,2.30
2023-06-29T21:54:00.214Z,2.40
2023-06-29T21:56:27.362Z,2.58
2023-06-29T21:58:54.378Z,2.22
2023-06-29T22:01:21.481Z,2.30
2023-06-29T22:03:48.480Z,2.78
2023-06-29T22:06:15.527Z,2.13
2023-06-29T22:08:43.800Z,2.00
2023-06-29T22:11:10.742Z,2.47
2023-06-29T22:13:37.659Z,2.58
2023-06-29T22:16:05.124Z,2.35
2023-06-29T22:18:32.116Z,2.47
2023-06-29T22:20:59.180Z,2.40
2023-06-29T22:23:26.120Z,2.53
2023-06-29T22:25:54.437Z,3.08
2023-06-29T22:28:21.340Z,2.45
2023-06-29T22:30:48.275Z,2.80
2023-06-29T22:33:15.197Z,2.80
2023-06-29T22:35:42.350Z,2.60
2023-06-29T22:38:09.292Z,2.80
2023-06-29T22:40:36.265Z,2.33
2023-06-29T22:43:04.551Z,2.35
2023-06-29T22:45:31.457Z,2.38
2023-06-29T22:47:58.537Z,3.10
2023-06-29T22:50:25.504Z,3.00
2023-06-29T22:52:52.397Z,2.65
2023-06-29T22:55:19.351Z,2.38
2023-06-29T22:57:46.648Z,3.22
2023-06-29T23:00:15.313Z,3.05
2023-06-29T23:02:42.347Z,2.17
2023-06-29T23:05:09.625Z,2.65
2023-06-29T23:07:36.812Z,2.78
2023-06-29T23:10:04.404Z,2.17
2023-06-29T23:12:31.286Z,2.30
2023-06-29T23:14:58.210Z,2.75
2023-06-29T23:17:26.608Z,2.05
2023-06-29T23:19:53.538Z,2.60
2023-06-29T23:22:20.544Z,2.05
2023-06-29T23:24:47.470Z,2.20
2023-06-29T23:27:14.340Z,1.98
2023-06-29T23:29:41.250Z,2.28
2023-06-29T23:32:08.716Z,2.22
2023-06-29T23:34:37.063Z,2.72
2023-06-29T23:37:04.267Z,2.75
2023-06-29T23:39:31.185Z,2.83
2023-06-29T23:41:58.091Z,3.28
2023-06-29T23:44:25.019Z,2.20
2023-06-29T23:46:52.042Z,2.33
2023-06-29T23:49:19.555Z,2.70
2023-06-29T23:51:47.886Z,2.70
2023-06-29T23:54:14.907Z,3.08
2023-06-29T23:56:42.194Z,2.70
2023-06-29T23:59:09.315Z,3.10
